sensor_id;sensor_type;location;lat;lon;timestamp;P1;durP1;ratioP1;P2;durP2;ratioP2
76121;SDS011;70471;53.200;6.080;2024-01-06T00:00:50;0.28;;;0.28;;
76121;SDS011;70471;53.200;6.080;2024-01-06T00:10:34;0.20;;;0.20;;
76121;SDS011;70471;53.200;6.080;2024-01-06T00:15:27;0.30;;;0.20;;
76121;SDS011;70471;53.200;6.080;2024-01-06T00:20:18;0.30;;;0.30;;
76121;SDS011;70471;53.200;6.080;2024-01-06T00:25:10;0.20;;;0.15;;
76121;SDS011;70471;53.200;6.080;2024-01-06T00:30:05;0.40;;;0.30;;
76121;SDS011;70471;53.200;6.080;2024-01-06T00:34:58;0.20;;;0.20;;
76121;SDS011;70471;53.200;6.080;2024-01-06T00:39:49;0.50;;;0.20;;
76121;SDS011;70471;53.200;6.080;2024-01-06T00:44:41;0.25;;;0.25;;
76121;SDS011;70471;53.200;6.080;2024-01-06T00:49:36;0.20;;;0.20;;
76121;SDS011;70471;53.200;6.080;2024-01-06T00:54:28;0.65;;;0.30;;
76121;SDS011;70471;53.200;6.080;2024-01-06T00:59:20;0.30;;;0.30;;
76121;SDS011;70471;53.200;6.080;2024-01-06T01:04:12;0.30;;;0.20;;
76121;SDS011;70471;53.200;6.080;2024-01-06T01:09:05;0.30;;;0.30;;
76121;SDS011;70471;53.200;6.080;2024-01-06T01:13:57;0.60;;;0.28;;
76121;SDS011;70471;53.200;6.080;2024-01-06T01:23:39;0.50;;;0.35;;
76121;SDS011;70471;53.200;6.080;2024-01-06T01:33:24;0.55;;;0.50;;
76121;SDS011;70471;53.200;6.080;2024-01-06T01:38:16;0.40;;;0.30;;
76121;SDS011;70471;53.200;6.080;2024-01-06T01:48:08;0.50;;;0.38;;
76121;SDS011;70471;53.200;6.080;2024-01-06T01:52:59;0.47;;;0.40;;
76121;SDS011;70471;53.200;6.080;2024-01-06T01:57:52;0.50;;;0.30;;
76121;SDS011;70471;53.200;6.080;2024-01-06T02:02:45;0.32;;;0.30;;
76121;SDS011;70471;53.200;6.080;2024-01-06T02:07:38;0.28;;;0.20;;
76121;SDS011;70471;53.200;6.080;2024-01-06T02:12:30;0.45;;;0.30;;
76121;SDS011;70471;53.200;6.080;2024-01-06T02:17:21;0.63;;;0.30;;
76121;SDS011;70471;53.200;6.080;2024-01-06T02:27:05;0.88;;;0.45;;
76121;SDS011;70471;53.200;6.080;2024-01-06T02:36:49;0.25;;;0.20;;
76121;SDS011;70471;53.200;6.080;2024-01-06T02:41:42;1.13;;;0.30;;
76121;SDS011;70471;53.200;6.080;2024-01-06T02:46:33;0.45;;;0.40;;
76121;SDS011;70471;53.200;6.080;2024-01-06T02:51:24;0.28;;;0.28;;
76121;SDS011;70471;53.200;6.080;2024-01-06T02:56:16;0.50;;;0.40;;
76121;SDS011;70471;53.200;6.080;2024-01-06T03:06:02;0.63;;;0.38;;
76121;SDS011;70471;53.200;6.080;2024-01-06T03:10:54;0.60;;;0.38;;
76121;SDS011;70471;53.200;6.080;2024-01-06T03:20:38;0.40;;;0.32;;
76121;SDS011;70471;53.200;6.080;2024-01-06T03:25:29;0.57;;;0.40;;
76121;SDS011;70471;53.200;6.080;2024-01-06T03:35:12;0.57;;;0.40;;
76121;SDS011;70471;53.200;6.080;2024-01-06T03:40:06;0.30;;;0.30;;
76121;SDS011;70471;53.200;6.080;2024-01-06T03:44:59;0.40;;;0.30;;
76121;SDS011;70471;53.200;6.080;2024-01-06T03:49:51;0.45;;;0.30;;
76121;SDS011;70471;53.200;6.080;2024-01-06T03:59:35;1.08;;;0.40;;
76121;SDS011;70471;53.200;6.080;2024-01-06T04:04:27;0.65;;;0.40;;
76121;SDS011;70471;53.200;6.080;2024-01-06T04:14:10;0.38;;;0.30;;
76121;SDS011;70471;53.200;6.080;2024-01-06T04:19:04;0.85;;;0.50;;
76121;SDS011;70471;53.200;6.080;2024-01-06T04:23:57;0.57;;;0.40;;
76121;SDS011;70471;53.200;6.080;2024-01-06T04:28:49;1.45;;;0.60;;
76121;SDS011;70471;53.200;6.080;2024-01-06T04:33:41;0.50;;;0.50;;
76121;SDS011;70471;53.200;6.080;2024-01-06T04:38:34;1.05;;;0.50;;
76121;SDS011;70471;53.200;6.080;2024-01-06T04:43:26;1.55;;;0.55;;
76121;SDS011;70471;53.200;6.080;2024-01-06T04:48:18;0.50;;;0.30;;
76121;SDS011;70471;53.200;6.080;2024-01-06T04:53:11;0.75;;;0.40;;
76121;SDS011;70471;53.200;6.080;2024-01-06T04:58:04;1.02;;;0.57;;
76121;SDS011;70471;53.200;6.080;2024-01-06T05:02:56;0.70;;;0.40;;
76121;SDS011;70471;53.200;6.080;2024-01-06T05:07:47;0.93;;;0.63;;
76121;SDS011;70471;53.200;6.080;2024-01-06T05:12:39;0.90;;;0.60;;
76121;SDS011;70471;53.200;6.080;2024-01-06T05:17:31;0.52;;;0.40;;
76121;SDS011;70471;53.200;6.080;2024-01-06T05:22:23;1.05;;;0.35;;
76121;SDS011;70471;53.200;6.080;2024-01-06T05:27:15;0.80;;;0.55;;
76121;SDS011;70471;53.200;6.080;2024-01-06T05:32:07;0.77;;;0.40;;
76121;SDS011;70471;53.200;6.080;2024-01-06T05:37:01;1.02;;;0.40;;
76121;SDS011;70471;53.200;6.080;2024-01-06T05:41:53;0.60;;;0.50;;
76121;SDS011;70471;53.200;6.080;2024-01-06T05:46:45;0.82;;;0.45;;
76121;SDS011;70471;53.200;6.080;2024-01-06T05:51:37;0.73;;;0.43;;
76121;SDS011;70471;53.200;6.080;2024-01-06T05:56:36;1.10;;;0.50;;
76121;SDS011;70471;53.200;6.080;2024-01-06T06:01:28;1.17;;;0.50;;
76121;SDS011;70471;53.200;6.080;2024-01-06T06:06:19;1.10;;;0.50;;
76121;SDS011;70471;53.200;6.080;2024-01-06T06:16:03;0.45;;;0.40;;
76121;SDS011;70471;53.200;6.080;2024-01-06T06:20:55;0.75;;;0.50;;
76121;SDS011;70471;53.200;6.080;2024-01-06T06:30:39;0.90;;;0.70;;
76121;SDS011;70471;53.200;6.080;2024-01-06T06:35:33;0.60;;;0.60;;
76121;SDS011;70471;53.200;6.080;2024-01-06T06:40:25;0.95;;;0.60;;
76121;SDS011;70471;53.200;6.080;2024-01-06T06:45:17;0.88;;;0.47;;
76121;SDS011;70471;53.200;6.080;2024-01-06T06:50:12;1.05;;;0.70;;
76121;SDS011;70471;53.200;6.080;2024-01-06T06:55:07;1.05;;;0.60;;
76121;SDS011;70471;53.200;6.080;2024-01-06T07:00:00;1.67;;;0.80;;
76121;SDS011;70471;53.200;6.080;2024-01-06T07:04:52;0.73;;;0.60;;
76121;SDS011;70471;53.200;6.080;2024-01-06T07:09:44;1.35;;;0.57;;
76121;SDS011;70471;53.200;6.080;2024-01-06T07:14:38;0.60;;;0.40;;
76121;SDS011;70471;53.200;6.080;2024-01-06T07:19:30;1.92;;;0.60;;
76121;SDS011;70471;53.200;6.080;2024-01-06T07:24:23;1.30;;;0.55;;
76121;SDS011;70471;53.200;6.080;2024-01-06T07:34:08;1.52;;;0.50;;
76121;SDS011;70471;53.200;6.080;2024-01-06T07:39:00;0.70;;;0.35;;
76121;SDS011;70471;53.200;6.080;2024-01-06T07:43:53;0.90;;;0.30;;
76121;SDS011;70471;53.200;6.080;2024-01-06T07:48:46;1.08;;;0.52;;
76121;SDS011;70471;53.200;6.080;2024-01-06T07:53:39;1.25;;;0.52;;
76121;SDS011;70471;53.200;6.080;2024-01-06T07:58:31;0.98;;;0.50;;
76121;SDS011;70471;53.200;6.080;2024-01-06T08:03:23;0.60;;;0.40;;
76121;SDS011;70471;53.200;6.080;2024-01-06T08:08:16;1.08;;;0.50;;
76121;SDS011;70471;53.200;6.080;2024-01-06T08:13:10;0.50;;;0.32;;
76121;SDS011;70471;53.200;6.080;2024-01-06T08:18:03;0.70;;;0.47;;
76121;SDS011;70471;53.200;6.080;2024-01-06T08:22:55;0.57;;;0.40;;
76121;SDS011;70471;53.200;6.080;2024-01-06T08:27:47;1.13;;;0.60;;
76121;SDS011;70471;53.200;6.080;2024-01-06T08:32:41;0.52;;;0.43;;
76121;SDS011;70471;53.200;6.080;2024-01-06T08:37:33;0.65;;;0.52;;
76121;SDS011;70471;53.200;6.080;2024-01-06T08:42:25;1.20;;;0.70;;
76121;SDS011;70471;53.200;6.080;2024-01-06T08:47:18;1.27;;;0.98;;
76121;SDS011;70471;53.200;6.080;2024-01-06T08:52:12;0.95;;;0.55;;
76121;SDS011;70471;53.200;6.080;2024-01-06T08:57:04;0.77;;;0.60;;
76121;SDS011;70471;53.200;6.080;2024-01-06T09:01:56;0.80;;;0.63;;
76121;SDS011;70471;53.200;6.080;2024-01-06T09:06:48;0.50;;;0.50;;
76121;SDS011;70471;53.200;6.080;2024-01-06T09:11:42;0.77;;;0.50;;
76121;SDS011;70471;53.200;6.080;2024-01-06T09:16:34;0.80;;;0.70;;
76121;SDS011;70471;53.200;6.080;2024-01-06T09:21:27;0.47;;;0.40;;
76121;SDS011;70471;53.200;6.080;2024-01-06T09:26:19;0.80;;;0.80;;
76121;SDS011;70471;53.200;6.080;2024-01-06T09:31:13;0.52;;;0.50;;
76121;SDS011;70471;53.200;6.080;2024-01-06T09:36:05;1.20;;;0.70;;
76121;SDS011;70471;53.200;6.080;2024-01-06T09:41:01;0.85;;;0.50;;
76121;SDS011;70471;53.200;6.080;2024-01-06T09:45:55;1.15;;;0.40;;
76121;SDS011;70471;53.200;6.080;2024-01-06T09:50:54;1.20;;;0.82;;
76121;SDS011;70471;53.200;6.080;2024-01-06T09:55:48;0.93;;;0.70;;
76121;SDS011;70471;53.200;6.080;2024-01-06T10:00:42;0.82;;;0.82;;
76121;SDS011;70471;53.200;6.080;2024-01-06T10:05:34;1.00;;;0.80;;
76121;SDS011;70471;53.200;6.080;2024-01-06T10:10:27;1.08;;;0.63;;
76121;SDS011;70471;53.200;6.080;2024-01-06T10:15:20;0.80;;;0.50;;
76121;SDS011;70471;53.200;6.080;2024-01-06T10:20:12;0.80;;;0.68;;
76121;SDS011;70471;53.200;6.080;2024-01-06T10:25:05;0.60;;;0.60;;
76121;SDS011;70471;53.200;6.080;2024-01-06T10:30:00;0.90;;;0.77;;
76121;SDS011;70471;53.200;6.080;2024-01-06T10:34:53;1.23;;;0.82;;
76121;SDS011;70471;53.200;6.080;2024-01-06T10:39:45;1.50;;;0.70;;
76121;SDS011;70471;53.200;6.080;2024-01-06T10:44:37;1.00;;;0.60;;
76121;SDS011;70471;53.200;6.080;2024-01-06T10:49:33;1.38;;;0.90;;
76121;SDS011;70471;53.200;6.080;2024-01-06T10:54:26;0.80;;;0.55;;
76121;SDS011;70471;53.200;6.080;2024-01-06T10:59:20;1.15;;;0.60;;
76121;SDS011;70471;53.200;6.080;2024-01-06T11:04:16;1.08;;;0.82;;
76121;SDS011;70471;53.200;6.080;2024-01-06T11:09:11;0.82;;;0.60;;
76121;SDS011;70471;53.200;6.080;2024-01-06T11:14:17;1.13;;;0.75;;
76121;SDS011;70471;53.200;6.080;2024-01-06T11:24:39;0.85;;;0.65;;
76121;SDS011;70471;53.200;6.080;2024-01-06T11:29:38;0.95;;;0.75;;
76121;SDS011;70471;53.200;6.080;2024-01-06T11:34:36;0.75;;;0.55;;
76121;SDS011;70471;53.200;6.080;2024-01-06T11:39:35;1.40;;;0.75;;
76121;SDS011;70471;53.200;6.080;2024-01-06T11:44:30;0.82;;;0.70;;
76121;SDS011;70471;53.200;6.080;2024-01-06T11:49:26;0.80;;;0.70;;
76121;SDS011;70471;53.200;6.080;2024-01-06T11:54:19;1.02;;;0.80;;
76121;SDS011;70471;53.200;6.080;2024-01-06T11:59:12;0.93;;;0.80;;
76121;SDS011;70471;53.200;6.080;2024-01-06T12:04:05;0.90;;;0.70;;
76121;SDS011;70471;53.200;6.080;2024-01-06T12:09:03;0.65;;;0.60;;
76121;SDS011;70471;53.200;6.080;2024-01-06T12:13:56;0.70;;;0.57;;
76121;SDS011;70471;53.200;6.080;2024-01-06T12:18:47;1.83;;;0.80;;
76121;SDS011;70471;53.200;6.080;2024-01-06T12:23:40;1.27;;;0.52;;
76121;SDS011;70471;53.200;6.080;2024-01-06T12:28:35;1.52;;;0.80;;
76121;SDS011;70471;53.200;6.080;2024-01-06T12:33:27;1.33;;;0.60;;
76121;SDS011;70471;53.200;6.080;2024-01-06T12:38:19;0.73;;;0.40;;
76121;SDS011;70471;53.200;6.080;2024-01-06T12:43:12;1.23;;;0.60;;
76121;SDS011;70471;53.200;6.080;2024-01-06T12:48:04;0.95;;;0.65;;
76121;SDS011;70471;53.200;6.080;2024-01-06T12:52:57;0.82;;;0.60;;
76121;SDS011;70471;53.200;6.080;2024-01-06T12:57:48;1.15;;;0.77;;
76121;SDS011;70471;53.200;6.080;2024-01-06T13:02:42;1.20;;;0.70;;
76121;SDS011;70471;53.200;6.080;2024-01-06T13:07:33;0.82;;;0.63;;
76121;SDS011;70471;53.200;6.080;2024-01-06T13:12:25;1.25;;;0.70;;
76121;SDS011;70471;53.200;6.080;2024-01-06T13:17:19;1.00;;;0.60;;
76121;SDS011;70471;53.200;6.080;2024-01-06T13:22:12;1.02;;;0.73;;
76121;SDS011;70471;53.200;6.080;2024-01-06T13:27:05;1.85;;;1.30;;
76121;SDS011;70471;53.200;6.080;2024-01-06T13:31:57;1.38;;;0.70;;
76121;SDS011;70471;53.200;6.080;2024-01-06T13:36:50;0.93;;;0.70;;
76121;SDS011;70471;53.200;6.080;2024-01-06T13:41:45;1.52;;;1.20;;
76121;SDS011;70471;53.200;6.080;2024-01-06T13:46:37;2.15;;;1.30;;
76121;SDS011;70471;53.200;6.080;2024-01-06T13:51:31;1.40;;;1.30;;
76121;SDS011;70471;53.200;6.080;2024-01-06T13:56:23;2.35;;;1.77;;
76121;SDS011;70471;53.200;6.080;2024-01-06T14:01:17;1.52;;;1.42;;
76121;SDS011;70471;53.200;6.080;2024-01-06T14:06:09;1.30;;;1.20;;
76121;SDS011;70471;53.200;6.080;2024-01-06T14:11:01;1.40;;;1.00;;
76121;SDS011;70471;53.200;6.080;2024-01-06T14:15:53;1.70;;;1.13;;
76121;SDS011;70471;53.200;6.080;2024-01-06T14:20:49;1.73;;;1.05;;
76121;SDS011;70471;53.200;6.080;2024-01-06T14:25:41;0.80;;;0.75;;
76121;SDS011;70471;53.200;6.080;2024-01-06T14:30:33;0.90;;;0.90;;
76121;SDS011;70471;53.200;6.080;2024-01-06T14:35:26;1.83;;;1.20;;
76121;SDS011;70471;53.200;6.080;2024-01-06T14:40:19;1.13;;;0.70;;
76121;SDS011;70471;53.200;6.080;2024-01-06T14:45:11;2.15;;;0.73;;
76121;SDS011;70471;53.200;6.080;2024-01-06T14:50:04;2.25;;;0.90;;
76121;SDS011;70471;53.200;6.080;2024-01-06T14:54:57;1.35;;;0.65;;
76121;SDS011;70471;53.200;6.080;2024-01-06T14:59:51;3.00;;;0.75;;
76121;SDS011;70471;53.200;6.080;2024-01-06T15:04:43;0.82;;;0.65;;
76121;SDS011;70471;53.200;6.080;2024-01-06T15:09:38;2.80;;;0.90;;
76121;SDS011;70471;53.200;6.080;2024-01-06T15:14:31;2.70;;;0.73;;
76121;SDS011;70471;53.200;6.080;2024-01-06T15:19:24;1.00;;;0.80;;
76121;SDS011;70471;53.200;6.080;2024-01-06T15:24:17;0.88;;;0.70;;
76121;SDS011;70471;53.200;6.080;2024-01-06T15:29:09;1.50;;;0.80;;
76121;SDS011;70471;53.200;6.080;2024-01-06T15:34:03;0.70;;;0.60;;
76121;SDS011;70471;53.200;6.080;2024-01-06T15:38:57;1.35;;;0.80;;
76121;SDS011;70471;53.200;6.080;2024-01-06T15:43:49;0.98;;;0.70;;
76121;SDS011;70471;53.200;6.080;2024-01-06T15:48:41;1.50;;;0.65;;
76121;SDS011;70471;53.200;6.080;2024-01-06T15:53:34;0.80;;;0.70;;
76121;SDS011;70471;53.200;6.080;2024-01-06T15:58:30;0.77;;;0.60;;
76121;SDS011;70471;53.200;6.080;2024-01-06T16:03:22;1.35;;;0.60;;
76121;SDS011;70471;53.200;6.080;2024-01-06T16:08:14;0.70;;;0.70;;
76121;SDS011;70471;53.200;6.080;2024-01-06T16:13:06;0.85;;;0.50;;
76121;SDS011;70471;53.200;6.080;2024-01-06T16:18:00;1.13;;;0.60;;
76121;SDS011;70471;53.200;6.080;2024-01-06T16:22:52;0.73;;;0.60;;
76121;SDS011;70471;53.200;6.080;2024-01-06T16:27:47;0.85;;;0.60;;
76121;SDS011;70471;53.200;6.080;2024-01-06T16:32:39;1.58;;;0.80;;
76121;SDS011;70471;53.200;6.080;2024-01-06T16:37:33;0.80;;;0.50;;
76121;SDS011;70471;53.200;6.080;2024-01-06T16:42:26;0.93;;;0.70;;
76121;SDS011;70471;53.200;6.080;2024-01-06T16:47:18;1.13;;;0.90;;
76121;SDS011;70471;53.200;6.080;2024-01-06T16:52:10;0.75;;;0.50;;
76121;SDS011;70471;53.200;6.080;2024-01-06T16:57:05;1.27;;;0.70;;
76121;SDS011;70471;53.200;6.080;2024-01-06T17:01:57;0.73;;;0.65;;
76121;SDS011;70471;53.200;6.080;2024-01-06T17:06:50;1.27;;;0.80;;
76121;SDS011;70471;53.200;6.080;2024-01-06T17:11:44;0.77;;;0.60;;
76121;SDS011;70471;53.200;6.080;2024-01-06T17:16:37;0.70;;;0.60;;
76121;SDS011;70471;53.200;6.080;2024-01-06T17:21:29;1.63;;;0.65;;
76121;SDS011;70471;53.200;6.080;2024-01-06T17:26:22;0.70;;;0.60;;
76121;SDS011;70471;53.200;6.080;2024-01-06T17:31:13;1.48;;;0.75;;
76121;SDS011;70471;53.200;6.080;2024-01-06T17:36:07;2.28;;;0.70;;
76121;SDS011;70471;53.200;6.080;2024-01-06T17:41:00;1.05;;;0.60;;
76121;SDS011;70471;53.200;6.080;2024-01-06T17:45:52;1.63;;;0.60;;
76121;SDS011;70471;53.200;6.080;2024-01-06T17:50:44;0.90;;;0.57;;
76121;SDS011;70471;53.200;6.080;2024-01-06T17:55:38;0.93;;;0.50;;
76121;SDS011;70471;53.200;6.080;2024-01-06T18:00:30;1.45;;;0.68;;
76121;SDS011;70471;53.200;6.080;2024-01-06T18:05:22;1.13;;;0.47;;
76121;SDS011;70471;53.200;6.080;2024-01-06T18:10:15;1.20;;;0.57;;
76121;SDS011;70471;53.200;6.080;2024-01-06T18:15:08;0.82;;;0.60;;
76121;SDS011;70471;53.200;6.080;2024-01-06T18:20:01;1.10;;;0.55;;
76121;SDS011;70471;53.200;6.080;2024-01-06T18:24:54;0.60;;;0.40;;
76121;SDS011;70471;53.200;6.080;2024-01-06T18:29:46;0.85;;;0.50;;
76121;SDS011;70471;53.200;6.080;2024-01-06T18:34:40;0.70;;;0.52;;
76121;SDS011;70471;53.200;6.080;2024-01-06T18:39:36;2.15;;;0.57;;
76121;SDS011;70471;53.200;6.080;2024-01-06T18:44:28;0.55;;;0.40;;
76121;SDS011;70471;53.200;6.080;2024-01-06T18:49:21;0.57;;;0.40;;
76121;SDS011;70471;53.200;6.080;2024-01-06T18:54:14;0.65;;;0.60;;
76121;SDS011;70471;53.200;6.080;2024-01-06T18:59:07;0.68;;;0.60;;
76121;SDS011;70471;53.200;6.080;2024-01-06T19:03:59;0.75;;;0.65;;
76121;SDS011;70471;53.200;6.080;2024-01-06T19:08:51;1.02;;;0.50;;
76121;SDS011;70471;53.200;6.080;2024-01-06T19:13:45;0.88;;;0.63;;
76121;SDS011;70471;53.200;6.080;2024-01-06T19:18:37;2.13;;;0.55;;
76121;SDS011;70471;53.200;6.080;2024-01-06T19:23:30;1.00;;;0.43;;
76121;SDS011;70471;53.200;6.080;2024-01-06T19:28:22;1.33;;;0.70;;
76121;SDS011;70471;53.200;6.080;2024-01-06T19:33:16;0.82;;;0.60;;
76121;SDS011;70471;53.200;6.080;2024-01-06T19:38:08;0.50;;;0.30;;
76121;SDS011;70471;53.200;6.080;2024-01-06T19:43:00;0.50;;;0.43;;
76121;SDS011;70471;53.200;6.080;2024-01-06T19:47:52;1.02;;;0.40;;
76121;SDS011;70471;53.200;6.080;2024-01-06T19:52:46;0.47;;;0.30;;
76121;SDS011;70471;53.200;6.080;2024-01-06T19:57:38;0.65;;;0.38;;
76121;SDS011;70471;53.200;6.080;2024-01-06T20:02:30;0.85;;;0.52;;
76121;SDS011;70471;53.200;6.080;2024-01-06T20:07:21;0.55;;;0.30;;
76121;SDS011;70471;53.200;6.080;2024-01-06T20:12:18;0.85;;;0.63;;
76121;SDS011;70471;53.200;6.080;2024-01-06T20:17:10;0.65;;;0.40;;
76121;SDS011;70471;53.200;6.080;2024-01-06T20:22:02;0.73;;;0.40;;
76121;SDS011;70471;53.200;6.080;2024-01-06T20:26:56;0.50;;;0.50;;
76121;SDS011;70471;53.200;6.080;2024-01-06T20:31:50;0.70;;;0.45;;
76121;SDS011;70471;53.200;6.080;2024-01-06T20:36:42;0.50;;;0.50;;
76121;SDS011;70471;53.200;6.080;2024-01-06T20:41:34;1.27;;;0.40;;
76121;SDS011;70471;53.200;6.080;2024-01-06T20:46:26;0.52;;;0.30;;
76121;SDS011;70471;53.200;6.080;2024-01-06T20:51:20;0.55;;;0.45;;
76121;SDS011;70471;53.200;6.080;2024-01-06T20:56:11;0.50;;;0.50;;
76121;SDS011;70471;53.200;6.080;2024-01-06T21:01:05;0.70;;;0.50;;
76121;SDS011;70471;53.200;6.080;2024-01-06T21:05:57;1.05;;;0.50;;
76121;SDS011;70471;53.200;6.080;2024-01-06T21:10:50;1.67;;;0.43;;
76121;SDS011;70471;53.200;6.080;2024-01-06T21:15:43;0.80;;;0.60;;
76121;SDS011;70471;53.200;6.080;2024-01-06T21:20:35;0.52;;;0.32;;
76121;SDS011;70471;53.200;6.080;2024-01-06T21:25:27;0.75;;;0.40;;
76121;SDS011;70471;53.200;6.080;2024-01-06T21:30:21;0.75;;;0.40;;
76121;SDS011;70471;53.200;6.080;2024-01-06T21:35:13;1.02;;;0.50;;
76121;SDS011;70471;53.200;6.080;2024-01-06T21:40:06;0.65;;;0.45;;
76121;SDS011;70471;53.200;6.080;2024-01-06T21:44:59;0.82;;;0.30;;
76121;SDS011;70471;53.200;6.080;2024-01-06T21:49:53;0.57;;;0.43;;
76121;SDS011;70471;53.200;6.080;2024-01-06T21:54:45;0.73;;;0.73;;
76121;SDS011;70471;53.200;6.080;2024-01-06T21:59:37;0.47;;;0.30;;
76121;SDS011;70471;53.200;6.080;2024-01-06T22:04:30;1.27;;;0.40;;
76121;SDS011;70471;53.200;6.080;2024-01-06T22:09:24;0.65;;;0.35;;
76121;SDS011;70471;53.200;6.080;2024-01-06T22:14:16;0.90;;;0.38;;
76121;SDS011;70471;53.200;6.080;2024-01-06T22:19:08;1.02;;;0.68;;
76121;SDS011;70471;53.200;6.080;2024-01-06T22:24:02;0.90;;;0.50;;
76121;SDS011;70471;53.200;6.080;2024-01-06T22:28:56;0.63;;;0.40;;
76121;SDS011;70471;53.200;6.080;2024-01-06T22:33:48;1.35;;;0.20;;
76121;SDS011;70471;53.200;6.080;2024-01-06T22:38:39;0.47;;;0.38;;
76121;SDS011;70471;53.200;6.080;2024-01-06T22:43:31;0.30;;;0.25;;
76121;SDS011;70471;53.200;6.080;2024-01-06T22:48:25;0.98;;;0.40;;
76121;SDS011;70471;53.200;6.080;2024-01-06T22:53:17;0.68;;;0.40;;
76121;SDS011;70471;53.200;6.080;2024-01-06T22:58:09;0.68;;;0.40;;
76121;SDS011;70471;53.200;6.080;2024-01-06T23:03:01;0.57;;;0.40;;
76121;SDS011;70471;53.200;6.080;2024-01-06T23:07:58;0.77;;;0.30;;
76121;SDS011;70471;53.200;6.080;2024-01-06T23:12:51;0.75;;;0.40;;
76121;SDS011;70471;53.200;6.080;2024-01-06T23:17:43;0.80;;;0.50;;
76121;SDS011;70471;53.200;6.080;2024-01-06T23:22:37;0.73;;;0.32;;
76121;SDS011;70471;53.200;6.080;2024-01-06T23:27:30;0.43;;;0.30;;
76121;SDS011;70471;53.200;6.080;2024-01-06T23:32:22;1.02;;;0.40;;
76121;SDS011;70471;53.200;6.080;2024-01-06T23:37:13;1.00;;;0.60;;
76121;SDS011;70471;53.200;6.080;2024-01-06T23:42:05;0.90;;;0.60;;
76121;SDS011;70471;53.200;6.080;2024-01-06T23:47:00;1.02;;;0.70;;
76121;SDS011;70471;53.200;6.080;2024-01-06T23:51:52;0.40;;;0.38;;
76121;SDS011;70471;53.200;6.080;2024-01-06T23:56:43;0.70;;;0.60;;
